<?xml version="1.0" encoding="UTF-8" standalone="no" ?>
<gpx xmlns="http://www.topografix.com/GPX/1/1" xmlns:xsi="http://www.w3.org/2001/XMLSchema-instance" xsi:schemaLocation="http://www.topografix.com/GPX/1/1 http://www.topografix.com/GPX/1/1/gpx.xsd" version="1.1" creator="VisuGPX - https://www.visugpx.com">
  <metadata>
    <name>Circuit du 10-04-2013</name>
    <desc><![CDATA[Circuit du 10-04-2013]]></desc>
  </metadata>
  <wpt lat="45.38379" lon="3.75143">
    <ele>669.20001220703</ele>
    <name><![CDATA[Start]]></name>
  </wpt>
  <wpt lat="45.38443" lon="3.7536">
    <ele>662.09997558594</ele>
    <name><![CDATA[End]]></name>
  </wpt>
  <trk>
    <name><![CDATA[Circuit du 10-04-2013_1]]></name>
    <trkseg>
      <trkpt lat="45.38379" lon="3.75143">
        <ele>669.20001220703</ele>
        <time>2013-04-10T16:33:02Z</time>
      </trkpt>
      <trkpt lat="45.38379" lon="3.75151">
        <ele>669.09997558594</ele>
        <time>2013-04-10T16:33:11Z</time>
      </trkpt>
      <trkpt lat="45.38384" lon="3.75155">
        <ele>664.79998779297</ele>
        <time>2013-04-10T16:33:20Z</time>
      </trkpt>
      <trkpt lat="45.38386" lon="3.75163">
        <ele>667.29998779297</ele>
        <time>2013-04-10T16:33:26Z</time>
      </trkpt>
      <trkpt lat="45.38389" lon="3.75168">
        <ele>665.09997558594</ele>
        <time>2013-04-10T16:33:28Z</time>
      </trkpt>
      <trkpt lat="45.38391" lon="3.75179">
        <ele>664.70001220703</ele>
        <time>2013-04-10T16:33:32Z</time>
      </trkpt>
      <trkpt lat="45.38392" lon="3.75186">
        <ele>664.70001220703</ele>
        <time>2013-04-10T16:33:34Z</time>
      </trkpt>
      <trkpt lat="45.38395" lon="3.75192">
        <ele>666.5</ele>
        <time>2013-04-10T16:33:37Z</time>
      </trkpt>
      <trkpt lat="45.38399" lon="3.75199">
        <ele>666</ele>
        <time>2013-04-10T16:33:40Z</time>
      </trkpt>
      <trkpt lat="45.38401" lon="3.75204">
        <ele>666.09997558594</ele>
        <time>2013-04-10T16:33:42Z</time>
      </trkpt>
      <trkpt lat="45.38402" lon="3.75211">
        <ele>666.59997558594</ele>
        <time>2013-04-10T16:33:45Z</time>
      </trkpt>
      <trkpt lat="45.38404" lon="3.75218">
        <ele>668</ele>
        <time>2013-04-10T16:33:48Z</time>
      </trkpt>
      <trkpt lat="45.38407" lon="3.75226">
        <ele>667.90002441406</ele>
        <time>2013-04-10T16:33:51Z</time>
      </trkpt>
      <trkpt lat="45.38411" lon="3.7523">
        <ele>668.79998779297</ele>
        <time>2013-04-10T16:33:53Z</time>
      </trkpt>
      <trkpt lat="45.38416" lon="3.75243">
        <ele>667.40002441406</ele>
        <time>2013-04-10T16:33:59Z</time>
      </trkpt>
      <trkpt lat="45.38416" lon="3.75252">
        <ele>663.59997558594</ele>
        <time>2013-04-10T16:34:02Z</time>
      </trkpt>
      <trkpt lat="45.38418" lon="3.75259">
        <ele>663</ele>
        <time>2013-04-10T16:34:07Z</time>
      </trkpt>
      <trkpt lat="45.38418" lon="3.75266">
        <ele>658.5</ele>
        <time>2013-04-10T16:34:13Z</time>
      </trkpt>
      <trkpt lat="45.38421" lon="3.75272">
        <ele>659.70001220703</ele>
        <time>2013-04-10T16:34:18Z</time>
      </trkpt>
      <trkpt lat="45.38422" lon="3.75279">
        <ele>660</ele>
        <time>2013-04-10T16:34:22Z</time>
      </trkpt>
      <trkpt lat="45.38425" lon="3.75286">
        <ele>662.09997558594</ele>
        <time>2013-04-10T16:34:26Z</time>
      </trkpt>
      <trkpt lat="45.38426" lon="3.75293">
        <ele>662</ele>
        <time>2013-04-10T16:34:31Z</time>
      </trkpt>
      <trkpt lat="45.38429" lon="3.75299">
        <ele>662</ele>
        <time>2013-04-10T16:34:35Z</time>
      </trkpt>
      <trkpt lat="45.38431" lon="3.75307">
        <ele>661.09997558594</ele>
        <time>2013-04-10T16:34:40Z</time>
      </trkpt>
      <trkpt lat="45.38433" lon="3.75313">
        <ele>661.29998779297</ele>
        <time>2013-04-10T16:34:44Z</time>
      </trkpt>
      <trkpt lat="45.38434" lon="3.7532">
        <ele>661.09997558594</ele>
        <time>2013-04-10T16:34:48Z</time>
      </trkpt>
      <trkpt lat="45.38436" lon="3.75326">
        <ele>659.59997558594</ele>
        <time>2013-04-10T16:34:52Z</time>
      </trkpt>
      <trkpt lat="45.38438" lon="3.75333">
        <ele>659.79998779297</ele>
        <time>2013-04-10T16:34:56Z</time>
      </trkpt>
      <trkpt lat="45.38441" lon="3.7534">
        <ele>659.29998779297</ele>
        <time>2013-04-10T16:35:01Z</time>
      </trkpt>
      <trkpt lat="45.38442" lon="3.75348">
        <ele>658.20001220703</ele>
        <time>2013-04-10T16:35:05Z</time>
      </trkpt>
      <trkpt lat="45.38446" lon="3.75355">
        <ele>659.90002441406</ele>
        <time>2013-04-10T16:35:07Z</time>
      </trkpt>
      <trkpt lat="45.38448" lon="3.75363">
        <ele>660.40002441406</ele>
        <time>2013-04-10T16:35:10Z</time>
      </trkpt>
      <trkpt lat="45.38453" lon="3.75368">
        <ele>661</ele>
        <time>2013-04-10T16:35:13Z</time>
      </trkpt>
      <trkpt lat="45.38455" lon="3.75374">
        <ele>661.40002441406</ele>
        <time>2013-04-10T16:35:15Z</time>
      </trkpt>
      <trkpt lat="45.38454" lon="3.75381">
        <ele>661</ele>
        <time>2013-04-10T16:35:18Z</time>
      </trkpt>
      <trkpt lat="45.38457" lon="3.75388">
        <ele>660.29998779297</ele>
        <time>2013-04-10T16:35:21Z</time>
      </trkpt>
      <trkpt lat="45.3846" lon="3.75397">
        <ele>660.29998779297</ele>
        <time>2013-04-10T16:35:24Z</time>
      </trkpt>
      <trkpt lat="45.38462" lon="3.75405">
        <ele>662</ele>
        <time>2013-04-10T16:35:27Z</time>
      </trkpt>
      <trkpt lat="45.38464" lon="3.75413">
        <ele>662.59997558594</ele>
        <time>2013-04-10T16:35:30Z</time>
      </trkpt>
      <trkpt lat="45.38467" lon="3.75422">
        <ele>662.59997558594</ele>
        <time>2013-04-10T16:35:33Z</time>
      </trkpt>
      <trkpt lat="45.38467" lon="3.75429">
        <ele>661.70001220703</ele>
        <time>2013-04-10T16:35:36Z</time>
      </trkpt>
      <trkpt lat="45.38469" lon="3.75437">
        <ele>663.40002441406</ele>
        <time>2013-04-10T16:35:40Z</time>
      </trkpt>
      <trkpt lat="45.38472" lon="3.75444">
        <ele>663</ele>
        <time>2013-04-10T16:35:43Z</time>
      </trkpt>
      <trkpt lat="45.38474" lon="3.75453">
        <ele>661.20001220703</ele>
        <time>2013-04-10T16:35:46Z</time>
      </trkpt>
      <trkpt lat="45.38476" lon="3.7546">
        <ele>663</ele>
        <time>2013-04-10T16:35:49Z</time>
      </trkpt>
      <trkpt lat="45.38479" lon="3.75467">
        <ele>663.59997558594</ele>
        <time>2013-04-10T16:35:53Z</time>
      </trkpt>
      <trkpt lat="45.38481" lon="3.75473">
        <ele>662.20001220703</ele>
        <time>2013-04-10T16:35:55Z</time>
      </trkpt>
      <trkpt lat="45.38483" lon="3.75481">
        <ele>661.20001220703</ele>
        <time>2013-04-10T16:35:59Z</time>
      </trkpt>
      <trkpt lat="45.38482" lon="3.75487">
        <ele>663.09997558594</ele>
        <time>2013-04-10T16:36:02Z</time>
      </trkpt>
      <trkpt lat="45.38484" lon="3.75492">
        <ele>663.20001220703</ele>
        <time>2013-04-10T16:36:04Z</time>
      </trkpt>
      <trkpt lat="45.38489" lon="3.75498">
        <ele>662.09997558594</ele>
        <time>2013-04-10T16:36:07Z</time>
      </trkpt>
      <trkpt lat="45.3849" lon="3.75505">
        <ele>660.5</ele>
        <time>2013-04-10T16:36:11Z</time>
      </trkpt>
      <trkpt lat="45.38493" lon="3.75511">
        <ele>659.79998779297</ele>
        <time>2013-04-10T16:36:14Z</time>
      </trkpt>
      <trkpt lat="45.38494" lon="3.75517">
        <ele>660.20001220703</ele>
        <time>2013-04-10T16:36:18Z</time>
      </trkpt>
      <trkpt lat="45.38498" lon="3.75526">
        <ele>660.59997558594</ele>
        <time>2013-04-10T16:36:23Z</time>
      </trkpt>
      <trkpt lat="45.385" lon="3.75532">
        <ele>661.5</ele>
        <time>2013-04-10T16:36:27Z</time>
      </trkpt>
      <trkpt lat="45.38499" lon="3.7554">
        <ele>664.5</ele>
        <time>2013-04-10T16:36:35Z</time>
      </trkpt>
      <trkpt lat="45.38501" lon="3.75547">
        <ele>664.09997558594</ele>
        <time>2013-04-10T16:36:40Z</time>
      </trkpt>
      <trkpt lat="45.38501" lon="3.75556">
        <ele>663.59997558594</ele>
        <time>2013-04-10T16:36:44Z</time>
      </trkpt>
      <trkpt lat="45.38503" lon="3.75562">
        <ele>663.70001220703</ele>
        <time>2013-04-10T16:36:48Z</time>
      </trkpt>
      <trkpt lat="45.38503" lon="3.7557">
        <ele>662.29998779297</ele>
        <time>2013-04-10T16:36:51Z</time>
      </trkpt>
      <trkpt lat="45.38506" lon="3.75576">
        <ele>662.79998779297</ele>
        <time>2013-04-10T16:36:55Z</time>
      </trkpt>
      <trkpt lat="45.38505" lon="3.75584">
        <ele>658.70001220703</ele>
        <time>2013-04-10T16:36:59Z</time>
      </trkpt>
      <trkpt lat="45.38506" lon="3.75593">
        <ele>662.29998779297</ele>
        <time>2013-04-10T16:37:05Z</time>
      </trkpt>
      <trkpt lat="45.38505" lon="3.756">
        <ele>663</ele>
        <time>2013-04-10T16:37:07Z</time>
      </trkpt>
      <trkpt lat="45.38505" lon="3.75607">
        <ele>661.09997558594</ele>
        <time>2013-04-10T16:37:10Z</time>
      </trkpt>
      <trkpt lat="45.38508" lon="3.75613">
        <ele>658.40002441406</ele>
        <time>2013-04-10T16:37:13Z</time>
      </trkpt>
      <trkpt lat="45.38511" lon="3.75623">
        <ele>659.5</ele>
        <time>2013-04-10T16:37:17Z</time>
      </trkpt>
      <trkpt lat="45.38511" lon="3.75633">
        <ele>662.5</ele>
        <time>2013-04-10T16:37:20Z</time>
      </trkpt>
      <trkpt lat="45.3851" lon="3.75643">
        <ele>660.40002441406</ele>
        <time>2013-04-10T16:37:25Z</time>
      </trkpt>
      <trkpt lat="45.38511" lon="3.75652">
        <ele>658.09997558594</ele>
        <time>2013-04-10T16:37:28Z</time>
      </trkpt>
      <trkpt lat="45.38517" lon="3.7566">
        <ele>661</ele>
        <time>2013-04-10T16:37:31Z</time>
      </trkpt>
      <trkpt lat="45.3852" lon="3.75667">
        <ele>662</ele>
        <time>2013-04-10T16:37:34Z</time>
      </trkpt>
      <trkpt lat="45.38521" lon="3.75673">
        <ele>664.20001220703</ele>
        <time>2013-04-10T16:37:38Z</time>
      </trkpt>
      <trkpt lat="45.38529" lon="3.75676">
        <ele>662.59997558594</ele>
        <time>2013-04-10T16:37:42Z</time>
      </trkpt>
      <trkpt lat="45.38551" lon="3.75668">
        <ele>663.09997558594</ele>
        <time>2013-04-10T16:37:50Z</time>
      </trkpt>
      <trkpt lat="45.38558" lon="3.7567">
        <ele>660.09997558594</ele>
        <time>2013-04-10T16:37:58Z</time>
      </trkpt>
      <trkpt lat="45.38563" lon="3.75669">
        <ele>660.5</ele>
        <time>2013-04-10T16:38:01Z</time>
      </trkpt>
      <trkpt lat="45.38566" lon="3.75673">
        <ele>660.20001220703</ele>
        <time>2013-04-10T16:38:05Z</time>
      </trkpt>
      <trkpt lat="45.38572" lon="3.75672">
        <ele>658</ele>
        <time>2013-04-10T16:38:10Z</time>
      </trkpt>
      <trkpt lat="45.38577" lon="3.75673">
        <ele>659.09997558594</ele>
        <time>2013-04-10T16:38:14Z</time>
      </trkpt>
      <trkpt lat="45.38583" lon="3.75673">
        <ele>659.20001220703</ele>
        <time>2013-04-10T16:38:18Z</time>
      </trkpt>
      <trkpt lat="45.3859" lon="3.75677">
        <ele>659.90002441406</ele>
        <time>2013-04-10T16:38:22Z</time>
      </trkpt>
      <trkpt lat="45.38595" lon="3.75681">
        <ele>659.59997558594</ele>
        <time>2013-04-10T16:38:30Z</time>
      </trkpt>
      <trkpt lat="45.38599" lon="3.75687">
        <ele>660.40002441406</ele>
        <time>2013-04-10T16:38:35Z</time>
      </trkpt>
      <trkpt lat="45.386" lon="3.75694">
        <ele>660.40002441406</ele>
        <time>2013-04-10T16:38:38Z</time>
      </trkpt>
      <trkpt lat="45.38602" lon="3.757">
        <ele>656.79998779297</ele>
        <time>2013-04-10T16:38:41Z</time>
      </trkpt>
      <trkpt lat="45.38607" lon="3.75705">
        <ele>654.40002441406</ele>
        <time>2013-04-10T16:38:45Z</time>
      </trkpt>
      <trkpt lat="45.3861" lon="3.7571">
        <ele>652.40002441406</ele>
        <time>2013-04-10T16:38:48Z</time>
      </trkpt>
      <trkpt lat="45.38615" lon="3.75712">
        <ele>656.79998779297</ele>
        <time>2013-04-10T16:38:54Z</time>
      </trkpt>
      <trkpt lat="45.3862" lon="3.75715">
        <ele>662.29998779297</ele>
        <time>2013-04-10T16:39:03Z</time>
      </trkpt>
      <trkpt lat="45.38623" lon="3.75719">
        <ele>661.40002441406</ele>
        <time>2013-04-10T16:39:07Z</time>
      </trkpt>
      <trkpt lat="45.38626" lon="3.75724">
        <ele>660.09997558594</ele>
        <time>2013-04-10T16:39:10Z</time>
      </trkpt>
      <trkpt lat="45.38632" lon="3.75727">
        <ele>658.20001220703</ele>
        <time>2013-04-10T16:39:15Z</time>
      </trkpt>
      <trkpt lat="45.38636" lon="3.75734">
        <ele>656</ele>
        <time>2013-04-10T16:39:19Z</time>
      </trkpt>
      <trkpt lat="45.38638" lon="3.7574">
        <ele>654.79998779297</ele>
        <time>2013-04-10T16:39:22Z</time>
      </trkpt>
      <trkpt lat="45.38643" lon="3.75746">
        <ele>653.40002441406</ele>
        <time>2013-04-10T16:39:24Z</time>
      </trkpt>
      <trkpt lat="45.38647" lon="3.75753">
        <ele>657.59997558594</ele>
        <time>2013-04-10T16:39:28Z</time>
      </trkpt>
      <trkpt lat="45.38651" lon="3.75757">
        <ele>660.20001220703</ele>
        <time>2013-04-10T16:39:31Z</time>
      </trkpt>
      <trkpt lat="45.38656" lon="3.7576">
        <ele>661.29998779297</ele>
        <time>2013-04-10T16:39:34Z</time>
      </trkpt>
      <trkpt lat="45.38659" lon="3.75764">
        <ele>665.40002441406</ele>
        <time>2013-04-10T16:39:37Z</time>
      </trkpt>
      <trkpt lat="45.38666" lon="3.75769">
        <ele>665.59997558594</ele>
        <time>2013-04-10T16:39:41Z</time>
      </trkpt>
      <trkpt lat="45.38672" lon="3.75775">
        <ele>665.79998779297</ele>
        <time>2013-04-10T16:39:43Z</time>
      </trkpt>
      <trkpt lat="45.38676" lon="3.7578">
        <ele>664.70001220703</ele>
        <time>2013-04-10T16:39:49Z</time>
      </trkpt>
      <trkpt lat="45.38681" lon="3.75787">
        <ele>664</ele>
        <time>2013-04-10T16:39:52Z</time>
      </trkpt>
      <trkpt lat="45.38684" lon="3.75795">
        <ele>662.20001220703</ele>
        <time>2013-04-10T16:39:56Z</time>
      </trkpt>
      <trkpt lat="45.38689" lon="3.758">
        <ele>661.59997558594</ele>
        <time>2013-04-10T16:39:59Z</time>
      </trkpt>
      <trkpt lat="45.38693" lon="3.75804">
        <ele>661.5</ele>
        <time>2013-04-10T16:40:01Z</time>
      </trkpt>
      <trkpt lat="45.38698" lon="3.75806">
        <ele>665</ele>
        <time>2013-04-10T16:40:07Z</time>
      </trkpt>
      <trkpt lat="45.38702" lon="3.75812">
        <ele>664.20001220703</ele>
        <time>2013-04-10T16:40:11Z</time>
      </trkpt>
      <trkpt lat="45.38706" lon="3.75817">
        <ele>666.29998779297</ele>
        <time>2013-04-10T16:40:15Z</time>
      </trkpt>
      <trkpt lat="45.38709" lon="3.75822">
        <ele>667.29998779297</ele>
        <time>2013-04-10T16:40:22Z</time>
      </trkpt>
      <trkpt lat="45.38712" lon="3.75828">
        <ele>667.09997558594</ele>
        <time>2013-04-10T16:40:25Z</time>
      </trkpt>
      <trkpt lat="45.38716" lon="3.75833">
        <ele>665.90002441406</ele>
        <time>2013-04-10T16:40:30Z</time>
      </trkpt>
      <trkpt lat="45.3872" lon="3.75838">
        <ele>665.79998779297</ele>
        <time>2013-04-10T16:40:33Z</time>
      </trkpt>
      <trkpt lat="45.38723" lon="3.75843">
        <ele>666.09997558594</ele>
        <time>2013-04-10T16:40:37Z</time>
      </trkpt>
      <trkpt lat="45.38726" lon="3.75851">
        <ele>661.59997558594</ele>
        <time>2013-04-10T16:40:44Z</time>
      </trkpt>
      <trkpt lat="45.3873" lon="3.75858">
        <ele>661.09997558594</ele>
        <time>2013-04-10T16:40:49Z</time>
      </trkpt>
      <trkpt lat="45.38734" lon="3.75862">
        <ele>660.20001220703</ele>
        <time>2013-04-10T16:40:54Z</time>
      </trkpt>
      <trkpt lat="45.38735" lon="3.75873">
        <ele>661.5</ele>
        <time>2013-04-10T16:41:00Z</time>
      </trkpt>
      <trkpt lat="45.38742" lon="3.75876">
        <ele>664.40002441406</ele>
        <time>2013-04-10T16:41:06Z</time>
      </trkpt>
      <trkpt lat="45.38748" lon="3.75883">
        <ele>666.40002441406</ele>
        <time>2013-04-10T16:41:09Z</time>
      </trkpt>
      <trkpt lat="45.38752" lon="3.75886">
        <ele>667.40002441406</ele>
        <time>2013-04-10T16:41:11Z</time>
      </trkpt>
      <trkpt lat="45.38759" lon="3.75898">
        <ele>671.90002441406</ele>
        <time>2013-04-10T16:41:17Z</time>
      </trkpt>
      <trkpt lat="45.38764" lon="3.75902">
        <ele>674.29998779297</ele>
        <time>2013-04-10T16:41:19Z</time>
      </trkpt>
      <trkpt lat="45.38768" lon="3.75909">
        <ele>673.79998779297</ele>
        <time>2013-04-10T16:41:23Z</time>
      </trkpt>
      <trkpt lat="45.38771" lon="3.75905">
        <ele>666.98516845703</ele>
        <time>2013-04-10T16:41:24Z</time>
      </trkpt>
      <trkpt lat="45.38778" lon="3.75905">
        <ele>662</ele>
        <time>2013-04-10T16:41:28Z</time>
      </trkpt>
      <trkpt lat="45.38783" lon="3.75908">
        <ele>661.90002441406</ele>
        <time>2013-04-10T16:41:31Z</time>
      </trkpt>
      <trkpt lat="45.3879" lon="3.75909">
        <ele>664.09997558594</ele>
        <time>2013-04-10T16:41:34Z</time>
      </trkpt>
      <trkpt lat="45.38798" lon="3.75912">
        <ele>664.70001220703</ele>
        <time>2013-04-10T16:41:38Z</time>
      </trkpt>
      <trkpt lat="45.38805" lon="3.75916">
        <ele>665.29998779297</ele>
        <time>2013-04-10T16:41:41Z</time>
      </trkpt>
      <trkpt lat="45.38809" lon="3.75922">
        <ele>665.70001220703</ele>
        <time>2013-04-10T16:41:44Z</time>
      </trkpt>
      <trkpt lat="45.38814" lon="3.75919">
        <ele>665.59997558594</ele>
        <time>2013-04-10T16:41:46Z</time>
      </trkpt>
      <trkpt lat="45.38819" lon="3.75919">
        <ele>665.59997558594</ele>
        <time>2013-04-10T16:41:49Z</time>
      </trkpt>
      <trkpt lat="45.38823" lon="3.7592">
        <ele>668.29998779297</ele>
        <time>2013-04-10T16:41:53Z</time>
      </trkpt>
      <trkpt lat="45.38829" lon="3.7592">
        <ele>666.59997558594</ele>
        <time>2013-04-10T16:41:58Z</time>
      </trkpt>
      <trkpt lat="45.38835" lon="3.75921">
        <ele>666.40002441406</ele>
        <time>2013-04-10T16:42:01Z</time>
      </trkpt>
      <trkpt lat="45.3884" lon="3.75918">
        <ele>663.59997558594</ele>
        <time>2013-04-10T16:42:04Z</time>
      </trkpt>
      <trkpt lat="45.38845" lon="3.75917">
        <ele>666.5</ele>
        <time>2013-04-10T16:42:10Z</time>
      </trkpt>
      <trkpt lat="45.38851" lon="3.75921">
        <ele>668.59997558594</ele>
        <time>2013-04-10T16:42:13Z</time>
      </trkpt>
      <trkpt lat="45.38855" lon="3.75921">
        <ele>665.40002441406</ele>
        <time>2013-04-10T16:42:16Z</time>
      </trkpt>
      <trkpt lat="45.38861" lon="3.75921">
        <ele>665.5</ele>
        <time>2013-04-10T16:42:20Z</time>
      </trkpt>
      <trkpt lat="45.38866" lon="3.75921">
        <ele>664.29998779297</ele>
        <time>2013-04-10T16:42:26Z</time>
      </trkpt>
      <trkpt lat="45.38871" lon="3.75921">
        <ele>660.70001220703</ele>
        <time>2013-04-10T16:42:30Z</time>
      </trkpt>
      <trkpt lat="45.38876" lon="3.75922">
        <ele>661.09997558594</ele>
        <time>2013-04-10T16:42:35Z</time>
      </trkpt>
      <trkpt lat="45.38888" lon="3.75923">
        <ele>664.20001220703</ele>
        <time>2013-04-10T16:42:44Z</time>
      </trkpt>
      <trkpt lat="45.38895" lon="3.75922">
        <ele>665.09997558594</ele>
        <time>2013-04-10T16:42:48Z</time>
      </trkpt>
      <trkpt lat="45.38902" lon="3.75917">
        <ele>662.29998779297</ele>
        <time>2013-04-10T16:42:50Z</time>
      </trkpt>
      <trkpt lat="45.38908" lon="3.75923">
        <ele>662.09997558594</ele>
        <time>2013-04-10T16:42:54Z</time>
      </trkpt>
      <trkpt lat="45.38906" lon="3.75916">
        <ele>660.09997558594</ele>
        <time>2013-04-10T16:42:58Z</time>
      </trkpt>
      <trkpt lat="45.38911" lon="3.75917">
        <ele>661.29998779297</ele>
        <time>2013-04-10T16:43:02Z</time>
      </trkpt>
      <trkpt lat="45.38917" lon="3.75914">
        <ele>659.90002441406</ele>
        <time>2013-04-10T16:43:07Z</time>
      </trkpt>
      <trkpt lat="45.38922" lon="3.75915">
        <ele>663.59997558594</ele>
        <time>2013-04-10T16:43:09Z</time>
      </trkpt>
      <trkpt lat="45.38932" lon="3.75915">
        <ele>664.20001220703</ele>
        <time>2013-04-10T16:43:14Z</time>
      </trkpt>
      <trkpt lat="45.38937" lon="3.75913">
        <ele>663.20001220703</ele>
        <time>2013-04-10T16:43:16Z</time>
      </trkpt>
      <trkpt lat="45.38944" lon="3.75913">
        <ele>662.59997558594</ele>
        <time>2013-04-10T16:43:20Z</time>
      </trkpt>
      <trkpt lat="45.38959" lon="3.75918">
        <ele>661.20001220703</ele>
        <time>2013-04-10T16:43:26Z</time>
      </trkpt>
      <trkpt lat="45.38966" lon="3.7592">
        <ele>663.29998779297</ele>
        <time>2013-04-10T16:43:30Z</time>
      </trkpt>
      <trkpt lat="45.38971" lon="3.7592">
        <ele>663</ele>
        <time>2013-04-10T16:43:32Z</time>
      </trkpt>
      <trkpt lat="45.38977" lon="3.75923">
        <ele>662.79998779297</ele>
        <time>2013-04-10T16:43:36Z</time>
      </trkpt>
      <trkpt lat="45.38983" lon="3.75924">
        <ele>660.59997558594</ele>
        <time>2013-04-10T16:43:40Z</time>
      </trkpt>
      <trkpt lat="45.38987" lon="3.75926">
        <ele>659.70001220703</ele>
        <time>2013-04-10T16:43:42Z</time>
      </trkpt>
      <trkpt lat="45.38996" lon="3.75929">
        <ele>660.5</ele>
        <time>2013-04-10T16:43:45Z</time>
      </trkpt>
      <trkpt lat="45.39002" lon="3.75931">
        <ele>659.29998779297</ele>
        <time>2013-04-10T16:43:49Z</time>
      </trkpt>
      <trkpt lat="45.39007" lon="3.75933">
        <ele>659.40002441406</ele>
        <time>2013-04-10T16:43:51Z</time>
      </trkpt>
      <trkpt lat="45.39016" lon="3.75936">
        <ele>661.20001220703</ele>
        <time>2013-04-10T16:43:54Z</time>
      </trkpt>
      <trkpt lat="45.3902" lon="3.75934">
        <ele>662.09997558594</ele>
        <time>2013-04-10T16:43:57Z</time>
      </trkpt>
      <trkpt lat="45.39025" lon="3.75939">
        <ele>661.40002441406</ele>
        <time>2013-04-10T16:44:01Z</time>
      </trkpt>
      <trkpt lat="45.39029" lon="3.75943">
        <ele>657.70001220703</ele>
        <time>2013-04-10T16:44:10Z</time>
      </trkpt>
      <trkpt lat="45.39036" lon="3.75948">
        <ele>659.09997558594</ele>
        <time>2013-04-10T16:44:16Z</time>
      </trkpt>
      <trkpt lat="45.39043" lon="3.75952">
        <ele>659.40002441406</ele>
        <time>2013-04-10T16:44:22Z</time>
      </trkpt>
      <trkpt lat="45.39047" lon="3.75952">
        <ele>660.59997558594</ele>
        <time>2013-04-10T16:44:24Z</time>
      </trkpt>
      <trkpt lat="45.39053" lon="3.75955">
        <ele>660.70001220703</ele>
        <time>2013-04-10T16:44:28Z</time>
      </trkpt>
      <trkpt lat="45.39058" lon="3.75952">
        <ele>659.5</ele>
        <time>2013-04-10T16:44:31Z</time>
      </trkpt>
      <trkpt lat="45.39064" lon="3.75951">
        <ele>661.90002441406</ele>
        <time>2013-04-10T16:44:35Z</time>
      </trkpt>
      <trkpt lat="45.39066" lon="3.75956">
        <ele>660.59997558594</ele>
        <time>2013-04-10T16:44:40Z</time>
      </trkpt>
      <trkpt lat="45.3907" lon="3.75964">
        <ele>657.09997558594</ele>
        <time>2013-04-10T16:44:47Z</time>
      </trkpt>
      <trkpt lat="45.39075" lon="3.75967">
        <ele>655</ele>
        <time>2013-04-10T16:44:54Z</time>
      </trkpt>
      <trkpt lat="45.39079" lon="3.75968">
        <ele>656.40002441406</ele>
        <time>2013-04-10T16:44:59Z</time>
      </trkpt>
      <trkpt lat="45.39087" lon="3.75977">
        <ele>658</ele>
        <time>2013-04-10T16:45:08Z</time>
      </trkpt>
      <trkpt lat="45.39096" lon="3.75987">
        <ele>657.90002441406</ele>
        <time>2013-04-10T16:45:20Z</time>
      </trkpt>
      <trkpt lat="45.39101" lon="3.75987">
        <ele>657.29998779297</ele>
        <time>2013-04-10T16:45:21Z</time>
      </trkpt>
      <trkpt lat="45.39109" lon="3.75986">
        <ele>657.20001220703</ele>
        <time>2013-04-10T16:45:24Z</time>
      </trkpt>
      <trkpt lat="45.39114" lon="3.75983">
        <ele>653.70001220703</ele>
        <time>2013-04-10T16:45:28Z</time>
      </trkpt>
      <trkpt lat="45.39123" lon="3.75987">
        <ele>654.5</ele>
        <time>2013-04-10T16:45:32Z</time>
      </trkpt>
      <trkpt lat="45.39129" lon="3.75991">
        <ele>654.90002441406</ele>
        <time>2013-04-10T16:45:35Z</time>
      </trkpt>
      <trkpt lat="45.39136" lon="3.75992">
        <ele>654.29998779297</ele>
        <time>2013-04-10T16:45:38Z</time>
      </trkpt>
      <trkpt lat="45.39142" lon="3.75994">
        <ele>656.09997558594</ele>
        <time>2013-04-10T16:45:44Z</time>
      </trkpt>
      <trkpt lat="45.39147" lon="3.75996">
        <ele>657.09997558594</ele>
        <time>2013-04-10T16:45:46Z</time>
      </trkpt>
      <trkpt lat="45.39153" lon="3.76">
        <ele>660.20001220703</ele>
        <time>2013-04-10T16:45:50Z</time>
      </trkpt>
      <trkpt lat="45.39158" lon="3.76002">
        <ele>661.09997558594</ele>
        <time>2013-04-10T16:45:53Z</time>
      </trkpt>
      <trkpt lat="45.39164" lon="3.76006">
        <ele>660.90002441406</ele>
        <time>2013-04-10T16:45:56Z</time>
      </trkpt>
      <trkpt lat="45.3917" lon="3.76008">
        <ele>661.29998779297</ele>
        <time>2013-04-10T16:45:59Z</time>
      </trkpt>
      <trkpt lat="45.39176" lon="3.76008">
        <ele>662.09997558594</ele>
        <time>2013-04-10T16:46:02Z</time>
      </trkpt>
      <trkpt lat="45.3918" lon="3.7601">
        <ele>663.40002441406</ele>
        <time>2013-04-10T16:46:06Z</time>
      </trkpt>
      <trkpt lat="45.39175" lon="3.76009">
        <ele>662.09997558594</ele>
        <time>2013-04-10T16:46:14Z</time>
      </trkpt>
      <trkpt lat="45.39169" lon="3.76006">
        <ele>660.70001220703</ele>
        <time>2013-04-10T16:46:22Z</time>
      </trkpt>
      <trkpt lat="45.39164" lon="3.76002">
        <ele>659.70001220703</ele>
        <time>2013-04-10T16:46:26Z</time>
      </trkpt>
      <trkpt lat="45.39158" lon="3.76002">
        <ele>658.20001220703</ele>
        <time>2013-04-10T16:46:29Z</time>
      </trkpt>
      <trkpt lat="45.39153" lon="3.76">
        <ele>657.09997558594</ele>
        <time>2013-04-10T16:46:32Z</time>
      </trkpt>
      <trkpt lat="45.39153" lon="3.75991">
        <ele>659.5</ele>
        <time>2013-04-10T16:46:39Z</time>
      </trkpt>
      <trkpt lat="45.39147" lon="3.75991">
        <ele>656.90002441406</ele>
        <time>2013-04-10T16:46:46Z</time>
      </trkpt>
      <trkpt lat="45.39141" lon="3.7599">
        <ele>656.20001220703</ele>
        <time>2013-04-10T16:46:50Z</time>
      </trkpt>
      <trkpt lat="45.39136" lon="3.75987">
        <ele>655</ele>
        <time>2013-04-10T16:46:54Z</time>
      </trkpt>
      <trkpt lat="45.39131" lon="3.75987">
        <ele>654.70001220703</ele>
        <time>2013-04-10T16:46:58Z</time>
      </trkpt>
      <trkpt lat="45.39127" lon="3.75985">
        <ele>653.5</ele>
        <time>2013-04-10T16:47:03Z</time>
      </trkpt>
      <trkpt lat="45.39121" lon="3.75985">
        <ele>655.20001220703</ele>
        <time>2013-04-10T16:47:05Z</time>
      </trkpt>
      <trkpt lat="45.39116" lon="3.75982">
        <ele>656.79998779297</ele>
        <time>2013-04-10T16:47:07Z</time>
      </trkpt>
      <trkpt lat="45.39114" lon="3.75977">
        <ele>657</ele>
        <time>2013-04-10T16:47:09Z</time>
      </trkpt>
      <trkpt lat="45.3911" lon="3.75973">
        <ele>656.90002441406</ele>
        <time>2013-04-10T16:47:12Z</time>
      </trkpt>
      <trkpt lat="45.39104" lon="3.75971">
        <ele>661.5</ele>
        <time>2013-04-10T16:47:17Z</time>
      </trkpt>
      <trkpt lat="45.39099" lon="3.75967">
        <ele>660.09997558594</ele>
        <time>2013-04-10T16:47:20Z</time>
      </trkpt>
      <trkpt lat="45.39095" lon="3.75963">
        <ele>661.20001220703</ele>
        <time>2013-04-10T16:47:23Z</time>
      </trkpt>
      <trkpt lat="45.3908" lon="3.75964">
        <ele>659.79998779297</ele>
        <time>2013-04-10T16:47:31Z</time>
      </trkpt>
      <trkpt lat="45.39075" lon="3.75961">
        <ele>660.59997558594</ele>
        <time>2013-04-10T16:47:34Z</time>
      </trkpt>
      <trkpt lat="45.39067" lon="3.75957">
        <ele>659.5</ele>
        <time>2013-04-10T16:47:41Z</time>
      </trkpt>
      <trkpt lat="45.39059" lon="3.75955">
        <ele>658.79998779297</ele>
        <time>2013-04-10T16:47:43Z</time>
      </trkpt>
      <trkpt lat="45.39053" lon="3.75952">
        <ele>659.90002441406</ele>
        <time>2013-04-10T16:47:45Z</time>
      </trkpt>
      <trkpt lat="45.39048" lon="3.75954">
        <ele>658.90002441406</ele>
        <time>2013-04-10T16:47:48Z</time>
      </trkpt>
      <trkpt lat="45.39043" lon="3.75951">
        <ele>655.79998779297</ele>
        <time>2013-04-10T16:47:51Z</time>
      </trkpt>
      <trkpt lat="45.39038" lon="3.75949">
        <ele>658</ele>
        <time>2013-04-10T16:47:55Z</time>
      </trkpt>
      <trkpt lat="45.39034" lon="3.75947">
        <ele>660.70001220703</ele>
        <time>2013-04-10T16:47:59Z</time>
      </trkpt>
      <trkpt lat="45.3903" lon="3.75943">
        <ele>660.40002441406</ele>
        <time>2013-04-10T16:48:04Z</time>
      </trkpt>
      <trkpt lat="45.39026" lon="3.7594">
        <ele>658.09997558594</ele>
        <time>2013-04-10T16:48:12Z</time>
      </trkpt>
      <trkpt lat="45.39021" lon="3.75941">
        <ele>659.90002441406</ele>
        <time>2013-04-10T16:48:18Z</time>
      </trkpt>
      <trkpt lat="45.39013" lon="3.75939">
        <ele>663</ele>
        <time>2013-04-10T16:48:22Z</time>
      </trkpt>
      <trkpt lat="45.39008" lon="3.75938">
        <ele>662.5</ele>
        <time>2013-04-10T16:48:26Z</time>
      </trkpt>
      <trkpt lat="45.39004" lon="3.75933">
        <ele>660.20001220703</ele>
        <time>2013-04-10T16:48:33Z</time>
      </trkpt>
      <trkpt lat="45.39" lon="3.75935">
        <ele>660.09997558594</ele>
        <time>2013-04-10T16:48:36Z</time>
      </trkpt>
      <trkpt lat="45.38995" lon="3.75934">
        <ele>658.5</ele>
        <time>2013-04-10T16:48:40Z</time>
      </trkpt>
      <trkpt lat="45.38986" lon="3.7593">
        <ele>656.09997558594</ele>
        <time>2013-04-10T16:48:49Z</time>
      </trkpt>
      <trkpt lat="45.38981" lon="3.75928">
        <ele>656.20001220703</ele>
        <time>2013-04-10T16:48:53Z</time>
      </trkpt>
      <trkpt lat="45.38976" lon="3.7593">
        <ele>656.20001220703</ele>
        <time>2013-04-10T16:48:57Z</time>
      </trkpt>
      <trkpt lat="45.38971" lon="3.75929">
        <ele>656.29998779297</ele>
        <time>2013-04-10T16:49:01Z</time>
      </trkpt>
      <trkpt lat="45.38966" lon="3.75922">
        <ele>652.40002441406</ele>
        <time>2013-04-10T16:49:06Z</time>
      </trkpt>
      <trkpt lat="45.38961" lon="3.75919">
        <ele>655.20001220703</ele>
        <time>2013-04-10T16:49:10Z</time>
      </trkpt>
      <trkpt lat="45.38955" lon="3.75917">
        <ele>656</ele>
        <time>2013-04-10T16:49:13Z</time>
      </trkpt>
      <trkpt lat="45.38948" lon="3.75918">
        <ele>658.09997558594</ele>
        <time>2013-04-10T16:49:17Z</time>
      </trkpt>
      <trkpt lat="45.38943" lon="3.75917">
        <ele>660.40002441406</ele>
        <time>2013-04-10T16:49:23Z</time>
      </trkpt>
      <trkpt lat="45.38937" lon="3.75915">
        <ele>661.29998779297</ele>
        <time>2013-04-10T16:49:26Z</time>
      </trkpt>
      <trkpt lat="45.38931" lon="3.75915">
        <ele>657.40002441406</ele>
        <time>2013-04-10T16:49:31Z</time>
      </trkpt>
      <trkpt lat="45.38924" lon="3.75913">
        <ele>658.90002441406</ele>
        <time>2013-04-10T16:49:35Z</time>
      </trkpt>
      <trkpt lat="45.38919" lon="3.75912">
        <ele>659.79998779297</ele>
        <time>2013-04-10T16:49:38Z</time>
      </trkpt>
      <trkpt lat="45.38913" lon="3.75914">
        <ele>658.59997558594</ele>
        <time>2013-04-10T16:49:42Z</time>
      </trkpt>
      <trkpt lat="45.38901" lon="3.75921">
        <ele>663.79998779297</ele>
        <time>2013-04-10T16:49:50Z</time>
      </trkpt>
      <trkpt lat="45.38896" lon="3.75917">
        <ele>662.90002441406</ele>
        <time>2013-04-10T16:49:55Z</time>
      </trkpt>
      <trkpt lat="45.3889" lon="3.75914">
        <ele>663.40002441406</ele>
        <time>2013-04-10T16:49:58Z</time>
      </trkpt>
      <trkpt lat="45.38879" lon="3.75917">
        <ele>663.20001220703</ele>
        <time>2013-04-10T16:50:09Z</time>
      </trkpt>
      <trkpt lat="45.38873" lon="3.75921">
        <ele>656.40002441406</ele>
        <time>2013-04-10T16:50:17Z</time>
      </trkpt>
      <trkpt lat="45.38867" lon="3.75918">
        <ele>658.90002441406</ele>
        <time>2013-04-10T16:50:25Z</time>
      </trkpt>
      <trkpt lat="45.38861" lon="3.75921">
        <ele>660.79998779297</ele>
        <time>2013-04-10T16:50:29Z</time>
      </trkpt>
      <trkpt lat="45.38857" lon="3.75917">
        <ele>662.79998779297</ele>
        <time>2013-04-10T16:50:33Z</time>
      </trkpt>
      <trkpt lat="45.38853" lon="3.75918">
        <ele>662.5</ele>
        <time>2013-04-10T16:50:37Z</time>
      </trkpt>
      <trkpt lat="45.38847" lon="3.7592">
        <ele>661.70001220703</ele>
        <time>2013-04-10T16:50:41Z</time>
      </trkpt>
      <trkpt lat="45.38841" lon="3.75917">
        <ele>660.29998779297</ele>
        <time>2013-04-10T16:50:46Z</time>
      </trkpt>
      <trkpt lat="45.38837" lon="3.75917">
        <ele>661.20001220703</ele>
        <time>2013-04-10T16:50:52Z</time>
      </trkpt>
      <trkpt lat="45.38828" lon="3.75919">
        <ele>656.90002441406</ele>
        <time>2013-04-10T16:50:59Z</time>
      </trkpt>
      <trkpt lat="45.38821" lon="3.7592">
        <ele>658</ele>
        <time>2013-04-10T16:51:05Z</time>
      </trkpt>
      <trkpt lat="45.38817" lon="3.75917">
        <ele>658.09997558594</ele>
        <time>2013-04-10T16:51:07Z</time>
      </trkpt>
      <trkpt lat="45.38813" lon="3.75911">
        <ele>660.29998779297</ele>
        <time>2013-04-10T16:51:09Z</time>
      </trkpt>
      <trkpt lat="45.38805" lon="3.75913">
        <ele>665</ele>
        <time>2013-04-10T16:51:14Z</time>
      </trkpt>
      <trkpt lat="45.388" lon="3.75909">
        <ele>665.59997558594</ele>
        <time>2013-04-10T16:51:19Z</time>
      </trkpt>
      <trkpt lat="45.38794" lon="3.7591">
        <ele>664.90002441406</ele>
        <time>2013-04-10T16:51:22Z</time>
      </trkpt>
      <trkpt lat="45.38787" lon="3.75909">
        <ele>664.40002441406</ele>
        <time>2013-04-10T16:51:26Z</time>
      </trkpt>
      <trkpt lat="45.38782" lon="3.75907">
        <ele>665.09997558594</ele>
        <time>2013-04-10T16:51:30Z</time>
      </trkpt>
      <trkpt lat="45.38778" lon="3.75907">
        <ele>663.5</ele>
        <time>2013-04-10T16:51:34Z</time>
      </trkpt>
      <trkpt lat="45.38773" lon="3.75902">
        <ele>666</ele>
        <time>2013-04-10T16:51:38Z</time>
      </trkpt>
      <trkpt lat="45.38767" lon="3.75897">
        <ele>664.59997558594</ele>
        <time>2013-04-10T16:51:41Z</time>
      </trkpt>
      <trkpt lat="45.38763" lon="3.75891">
        <ele>666.70001220703</ele>
        <time>2013-04-10T16:51:44Z</time>
      </trkpt>
      <trkpt lat="45.38759" lon="3.75885">
        <ele>666.70001220703</ele>
        <time>2013-04-10T16:51:49Z</time>
      </trkpt>
      <trkpt lat="45.38755" lon="3.75881">
        <ele>666.79998779297</ele>
        <time>2013-04-10T16:51:52Z</time>
      </trkpt>
      <trkpt lat="45.38752" lon="3.75874">
        <ele>663.59997558594</ele>
        <time>2013-04-10T16:51:55Z</time>
      </trkpt>
      <trkpt lat="45.38744" lon="3.75873">
        <ele>663.90002441406</ele>
        <time>2013-04-10T16:52:00Z</time>
      </trkpt>
      <trkpt lat="45.3874" lon="3.75869">
        <ele>663</ele>
        <time>2013-04-10T16:52:04Z</time>
      </trkpt>
      <trkpt lat="45.38736" lon="3.75863">
        <ele>662.70001220703</ele>
        <time>2013-04-10T16:52:07Z</time>
      </trkpt>
      <trkpt lat="45.38734" lon="3.75857">
        <ele>664.09997558594</ele>
        <time>2013-04-10T16:52:15Z</time>
      </trkpt>
      <trkpt lat="45.38729" lon="3.75853">
        <ele>665.29998779297</ele>
        <time>2013-04-10T16:52:20Z</time>
      </trkpt>
      <trkpt lat="45.38726" lon="3.75848">
        <ele>668.29998779297</ele>
        <time>2013-04-10T16:52:25Z</time>
      </trkpt>
      <trkpt lat="45.38723" lon="3.75842">
        <ele>669</ele>
        <time>2013-04-10T16:52:31Z</time>
      </trkpt>
      <trkpt lat="45.38718" lon="3.75835">
        <ele>667.70001220703</ele>
        <time>2013-04-10T16:52:36Z</time>
      </trkpt>
      <trkpt lat="45.38713" lon="3.75829">
        <ele>667.20001220703</ele>
        <time>2013-04-10T16:52:39Z</time>
      </trkpt>
      <trkpt lat="45.38715" lon="3.75823">
        <ele>666.5</ele>
        <time>2013-04-10T16:52:43Z</time>
      </trkpt>
      <trkpt lat="45.38711" lon="3.7582">
        <ele>661.29998779297</ele>
        <time>2013-04-10T16:52:49Z</time>
      </trkpt>
      <trkpt lat="45.38707" lon="3.75815">
        <ele>663.09997558594</ele>
        <time>2013-04-10T16:52:52Z</time>
      </trkpt>
      <trkpt lat="45.38704" lon="3.75811">
        <ele>663.90002441406</ele>
        <time>2013-04-10T16:52:56Z</time>
      </trkpt>
      <trkpt lat="45.38699" lon="3.75807">
        <ele>661.20001220703</ele>
        <time>2013-04-10T16:53:00Z</time>
      </trkpt>
      <trkpt lat="45.38696" lon="3.75802">
        <ele>659.79998779297</ele>
        <time>2013-04-10T16:53:04Z</time>
      </trkpt>
      <trkpt lat="45.38693" lon="3.75796">
        <ele>660.20001220703</ele>
        <time>2013-04-10T16:53:07Z</time>
      </trkpt>
      <trkpt lat="45.38687" lon="3.75793">
        <ele>662.09997558594</ele>
        <time>2013-04-10T16:53:10Z</time>
      </trkpt>
      <trkpt lat="45.38682" lon="3.75793">
        <ele>660.09997558594</ele>
        <time>2013-04-10T16:53:13Z</time>
      </trkpt>
      <trkpt lat="45.3868" lon="3.75788">
        <ele>661.29998779297</ele>
        <time>2013-04-10T16:53:16Z</time>
      </trkpt>
      <trkpt lat="45.38675" lon="3.75781">
        <ele>662.29998779297</ele>
        <time>2013-04-10T16:53:19Z</time>
      </trkpt>
      <trkpt lat="45.38671" lon="3.75776">
        <ele>662.20001220703</ele>
        <time>2013-04-10T16:53:22Z</time>
      </trkpt>
      <trkpt lat="45.38667" lon="3.7577">
        <ele>662.59997558594</ele>
        <time>2013-04-10T16:53:25Z</time>
      </trkpt>
      <trkpt lat="45.38662" lon="3.75767">
        <ele>662.20001220703</ele>
        <time>2013-04-10T16:53:27Z</time>
      </trkpt>
      <trkpt lat="45.38659" lon="3.75761">
        <ele>661</ele>
        <time>2013-04-10T16:53:30Z</time>
      </trkpt>
      <trkpt lat="45.38653" lon="3.75756">
        <ele>658.59997558594</ele>
        <time>2013-04-10T16:53:33Z</time>
      </trkpt>
      <trkpt lat="45.3865" lon="3.75751">
        <ele>659.20001220703</ele>
        <time>2013-04-10T16:53:36Z</time>
      </trkpt>
      <trkpt lat="45.38645" lon="3.75747">
        <ele>657.09997558594</ele>
        <time>2013-04-10T16:53:39Z</time>
      </trkpt>
      <trkpt lat="45.38642" lon="3.75742">
        <ele>655.70001220703</ele>
        <time>2013-04-10T16:53:42Z</time>
      </trkpt>
      <trkpt lat="45.38638" lon="3.75738">
        <ele>653.79998779297</ele>
        <time>2013-04-10T16:53:45Z</time>
      </trkpt>
      <trkpt lat="45.38633" lon="3.75733">
        <ele>654.59997558594</ele>
        <time>2013-04-10T16:53:48Z</time>
      </trkpt>
      <trkpt lat="45.38624" lon="3.75725">
        <ele>648.29998779297</ele>
        <time>2013-04-10T16:53:55Z</time>
      </trkpt>
      <trkpt lat="45.38618" lon="3.75723">
        <ele>650.59997558594</ele>
        <time>2013-04-10T16:53:57Z</time>
      </trkpt>
      <trkpt lat="45.38614" lon="3.75715">
        <ele>650.20001220703</ele>
        <time>2013-04-10T16:54:01Z</time>
      </trkpt>
      <trkpt lat="45.38609" lon="3.75708">
        <ele>652.40002441406</ele>
        <time>2013-04-10T16:54:06Z</time>
      </trkpt>
      <trkpt lat="45.38606" lon="3.757">
        <ele>655.40002441406</ele>
        <time>2013-04-10T16:54:10Z</time>
      </trkpt>
      <trkpt lat="45.38602" lon="3.75696">
        <ele>655.5</ele>
        <time>2013-04-10T16:54:14Z</time>
      </trkpt>
      <trkpt lat="45.38597" lon="3.75686">
        <ele>657.40002441406</ele>
        <time>2013-04-10T16:54:22Z</time>
      </trkpt>
      <trkpt lat="45.38591" lon="3.75682">
        <ele>660.59997558594</ele>
        <time>2013-04-10T16:54:27Z</time>
      </trkpt>
      <trkpt lat="45.38587" lon="3.75678">
        <ele>659</ele>
        <time>2013-04-10T16:54:31Z</time>
      </trkpt>
      <trkpt lat="45.38582" lon="3.75675">
        <ele>657.90002441406</ele>
        <time>2013-04-10T16:54:39Z</time>
      </trkpt>
      <trkpt lat="45.38577" lon="3.75674">
        <ele>659.59997558594</ele>
        <time>2013-04-10T16:54:43Z</time>
      </trkpt>
      <trkpt lat="45.38572" lon="3.75673">
        <ele>659.59997558594</ele>
        <time>2013-04-10T16:54:49Z</time>
      </trkpt>
      <trkpt lat="45.38563" lon="3.75675">
        <ele>656</ele>
        <time>2013-04-10T16:54:54Z</time>
      </trkpt>
      <trkpt lat="45.38558" lon="3.75677">
        <ele>655.20001220703</ele>
        <time>2013-04-10T16:54:58Z</time>
      </trkpt>
      <trkpt lat="45.38553" lon="3.75675">
        <ele>656.59997558594</ele>
        <time>2013-04-10T16:55:03Z</time>
      </trkpt>
      <trkpt lat="45.38544" lon="3.75675">
        <ele>657.29998779297</ele>
        <time>2013-04-10T16:55:09Z</time>
      </trkpt>
      <trkpt lat="45.38537" lon="3.75675">
        <ele>656.40002441406</ele>
        <time>2013-04-10T16:55:12Z</time>
      </trkpt>
      <trkpt lat="45.38529" lon="3.75675">
        <ele>660.59997558594</ele>
        <time>2013-04-10T16:55:18Z</time>
      </trkpt>
      <trkpt lat="45.38525" lon="3.7567">
        <ele>664.09997558594</ele>
        <time>2013-04-10T16:55:21Z</time>
      </trkpt>
      <trkpt lat="45.38524" lon="3.75663">
        <ele>660.09997558594</ele>
        <time>2013-04-10T16:55:26Z</time>
      </trkpt>
      <trkpt lat="45.38519" lon="3.75654">
        <ele>659.79998779297</ele>
        <time>2013-04-10T16:55:31Z</time>
      </trkpt>
      <trkpt lat="45.38518" lon="3.75646">
        <ele>659.40002441406</ele>
        <time>2013-04-10T16:55:34Z</time>
      </trkpt>
      <trkpt lat="45.38514" lon="3.75639">
        <ele>658.59997558594</ele>
        <time>2013-04-10T16:55:37Z</time>
      </trkpt>
      <trkpt lat="45.38511" lon="3.75634">
        <ele>656.70001220703</ele>
        <time>2013-04-10T16:55:40Z</time>
      </trkpt>
      <trkpt lat="45.38509" lon="3.75626">
        <ele>658.90002441406</ele>
        <time>2013-04-10T16:55:43Z</time>
      </trkpt>
      <trkpt lat="45.38505" lon="3.75616">
        <ele>656</ele>
        <time>2013-04-10T16:55:48Z</time>
      </trkpt>
      <trkpt lat="45.38506" lon="3.75607">
        <ele>654.40002441406</ele>
        <time>2013-04-10T16:55:51Z</time>
      </trkpt>
      <trkpt lat="45.38506" lon="3.75599">
        <ele>653.90002441406</ele>
        <time>2013-04-10T16:55:55Z</time>
      </trkpt>
      <trkpt lat="45.38503" lon="3.75593">
        <ele>652.40002441406</ele>
        <time>2013-04-10T16:55:59Z</time>
      </trkpt>
      <trkpt lat="45.38503" lon="3.75585">
        <ele>651.59997558594</ele>
        <time>2013-04-10T16:56:02Z</time>
      </trkpt>
      <trkpt lat="45.38504" lon="3.75578">
        <ele>653.40002441406</ele>
        <time>2013-04-10T16:56:05Z</time>
      </trkpt>
      <trkpt lat="45.38506" lon="3.75573">
        <ele>653.90002441406</ele>
        <time>2013-04-10T16:56:08Z</time>
      </trkpt>
      <trkpt lat="45.38503" lon="3.75568">
        <ele>653.09997558594</ele>
        <time>2013-04-10T16:56:10Z</time>
      </trkpt>
      <trkpt lat="45.38502" lon="3.7556">
        <ele>655.79998779297</ele>
        <time>2013-04-10T16:56:14Z</time>
      </trkpt>
      <trkpt lat="45.38499" lon="3.75555">
        <ele>657.29998779297</ele>
        <time>2013-04-10T16:56:19Z</time>
      </trkpt>
      <trkpt lat="45.38496" lon="3.75548">
        <ele>657.09997558594</ele>
        <time>2013-04-10T16:56:22Z</time>
      </trkpt>
      <trkpt lat="45.38495" lon="3.75541">
        <ele>657.20001220703</ele>
        <time>2013-04-10T16:56:30Z</time>
      </trkpt>
      <trkpt lat="45.38494" lon="3.75535">
        <ele>655.20001220703</ele>
        <time>2013-04-10T16:56:33Z</time>
      </trkpt>
      <trkpt lat="45.38491" lon="3.75529">
        <ele>654.09997558594</ele>
        <time>2013-04-10T16:56:36Z</time>
      </trkpt>
      <trkpt lat="45.3849" lon="3.75519">
        <ele>655.20001220703</ele>
        <time>2013-04-10T16:56:45Z</time>
      </trkpt>
      <trkpt lat="45.38484" lon="3.75519">
        <ele>653.70001220703</ele>
        <time>2013-04-10T16:56:49Z</time>
      </trkpt>
      <trkpt lat="45.38489" lon="3.75519">
        <ele>654.29998779297</ele>
        <time>2013-04-10T16:56:50Z</time>
      </trkpt>
      <trkpt lat="45.38487" lon="3.75509">
        <ele>655.09997558594</ele>
        <time>2013-04-10T16:56:53Z</time>
      </trkpt>
      <trkpt lat="45.38484" lon="3.75496">
        <ele>656.29998779297</ele>
        <time>2013-04-10T16:56:58Z</time>
      </trkpt>
      <trkpt lat="45.38477" lon="3.75489">
        <ele>656.79998779297</ele>
        <time>2013-04-10T16:57:03Z</time>
      </trkpt>
      <trkpt lat="45.3848" lon="3.75481">
        <ele>657.09997558594</ele>
        <time>2013-04-10T16:57:06Z</time>
      </trkpt>
      <trkpt lat="45.38482" lon="3.75472">
        <ele>657.90002441406</ele>
        <time>2013-04-10T16:57:10Z</time>
      </trkpt>
      <trkpt lat="45.38479" lon="3.75466">
        <ele>660.70001220703</ele>
        <time>2013-04-10T16:57:13Z</time>
      </trkpt>
      <trkpt lat="45.38474" lon="3.7545">
        <ele>660.90002441406</ele>
        <time>2013-04-10T16:57:19Z</time>
      </trkpt>
      <trkpt lat="45.3847" lon="3.75444">
        <ele>662.5</ele>
        <time>2013-04-10T16:57:23Z</time>
      </trkpt>
      <trkpt lat="45.38467" lon="3.75434">
        <ele>662.09997558594</ele>
        <time>2013-04-10T16:57:27Z</time>
      </trkpt>
      <trkpt lat="45.38465" lon="3.75427">
        <ele>661.59997558594</ele>
        <time>2013-04-10T16:57:31Z</time>
      </trkpt>
      <trkpt lat="45.38462" lon="3.75421">
        <ele>662.5</ele>
        <time>2013-04-10T16:57:35Z</time>
      </trkpt>
      <trkpt lat="45.3846" lon="3.75414">
        <ele>664.79998779297</ele>
        <time>2013-04-10T16:57:39Z</time>
      </trkpt>
      <trkpt lat="45.38459" lon="3.75406">
        <ele>664.90002441406</ele>
        <time>2013-04-10T16:57:42Z</time>
      </trkpt>
      <trkpt lat="45.38456" lon="3.75397">
        <ele>666.5</ele>
        <time>2013-04-10T16:57:46Z</time>
      </trkpt>
      <trkpt lat="45.38454" lon="3.7539">
        <ele>667.40002441406</ele>
        <time>2013-04-10T16:57:49Z</time>
      </trkpt>
      <trkpt lat="45.38451" lon="3.75384">
        <ele>666.29998779297</ele>
        <time>2013-04-10T16:57:52Z</time>
      </trkpt>
      <trkpt lat="45.38449" lon="3.75378">
        <ele>665.90002441406</ele>
        <time>2013-04-10T16:57:55Z</time>
      </trkpt>
      <trkpt lat="45.38448" lon="3.75372">
        <ele>661.29998779297</ele>
        <time>2013-04-10T16:57:59Z</time>
      </trkpt>
      <trkpt lat="45.38444" lon="3.75368">
        <ele>662</ele>
        <time>2013-04-10T16:58:05Z</time>
      </trkpt>
      <trkpt lat="45.38443" lon="3.7536">
        <ele>662.09997558594</ele>
        <time>2013-04-10T16:58:10Z</time>
      </trkpt>
    </trkseg>
  </trk>
</gpx>